Washington, DC (20554)

2:44 AM EDT on August 27, 2016 (GMT -0400)
Adams Morgan | | Change Station

Elev 171 ft 38.92 °N, 77.04 °W | Updated 1 minute ago

Mostly Cloudy
Mostly Cloudy
81.7 °F
Feels Like 87 °F
N
0.0
Wind Variable Wind from NW
Gusts 0.0 mph

Today
High -- | Low -- °F
--% Chance of Precip.
Yesterday
High -- | Low -- °F
Precip. -- in
Pressure 30.10 in
Visibility 10.0 miles
Clouds Scattered Clouds 7000 ft
Mostly Cloudy 25000 ft
Heat Index 87 °F
Dew Point 74 °F
Humidity 77%
Rainfall 0.00 in
Snow Depth Not available.
6:33 AM 7:45 PM
Waning Crescent, 27% visible
METAR KDCA 270552Z COR 05005KT 10SM SCT070 BKN250 28/23 A3010 RMK AO2 SLP192 T02780233 10322 20278 51004
Pressure 30.10 in
Visibility 10.0 miles
Clouds Scattered Clouds 7000 ft
Mostly Cloudy 25000 ft
Heat Index 87 °F
Dew Point 74 °F
Humidity 77%
Rainfall 0.00 in
Snow Depth Not available.
6:33 AM 7:45 PM
Waning Crescent, 27% visible
METAR KDCA 270552Z COR 05005KT 10SM SCT070 BKN250 28/23 A3010 RMK AO2 SLP192 T02780233 10322 20278 51004

10-Day Weather Forecast

Almanac

Astronomy

Aug. 27, 2016 Rise Set
Actual Time
Civil Twilight
Nautical Twilight
Astronomical Twilight
Moon
Length of Visible Light
Length of Day
Tomorrow will be .
, % of the Moon is Illuminated

Today's Extremes

State Highs State Lows

Community

WunderPhotos

Upload Photos

1,935,303 photos uploaded!

WunderBlog® & News

Nearby

Air Quality

  Air Quality AQ Index Pollutant
Not available.

Snow Depth

Station Depth Elevation

Earthquake Activity

City Distance Mag. Time & Date
Minimum magnitude displayed is 2.5.

Coastal Water Temperatures

Place Temperature

Stations

Nearby Weather Stations

Station Location Temp. Windchill Dew Point Humidity Wind Precip. Elev Updated Type
                   

Watches & Warnings

There are currently no watches in effect.